Lowell, Arizona
Current Conditions -  °F | °C
As of 11:56 AM on Thursday 30 Oct 2014 (Local Time) from KDUG Reporting Station
Clear Clear  
Wind Chill: 82°   Ceiling: Unl
Heat Index: 82°   Visibility: 10mi
Dew Point: 35°   Wind: 12mph
Humidity: 18%   Direction: 90°E
Pressure: 30.17"   Gusts: NA
Location:  31.4799°N, 109.96°W
Report Text: KDUG 301856Z AUTO 09010KT 10SM CLR 28/02 A3017 RMK AO2 SLP160 T02780017
Loading
Personal Weather Stations






























Interactive Weather Map
Tropical Storm Tracking
New forecast layout! Learn more

10-Day Weather Forecast

Advertisements
Track Severe Weather on mobile